Time;durP1;ratioP1;P1;durP2;ratioP2;P2;SDS_P1;SDS_P2;PMS_P1;PMS_P2;Temp;Humidity;BMP_temperature;BMP_pressure;BME280_temperature;BME280_humidity;BME280_pressure;Samples;Min_cycle;Max_cycle;Signal;HPM_P1;HPM_P2
2024/01/01 00:01:20;;;;;;;;;;;17.80;45.00;;;;;;1590506;73;718;-58
2024/01/01 00:03:22;;;;;;;;;;;17.80;45.00;;;;;;1589267;73;1184;-60
2024/01/01 00:05:24;;;;;;;;;;;17.80;45.00;;;;;;1595590;73;754;-59
2024/01/01 00:07:26;;;;;;;;;;;17.80;45.00;;;;;;1594349;73;738;-60
2024/01/01 00:09:28;;;;;;;;;;;17.80;45.00;;;;;;1601021;73;645;-60
2024/01/01 00:11:30;;;;;;;;;;;17.90;45.10;;;;;;1593456;73;1507;-60
2024/01/01 00:13:32;;;;;;;;;;;17.80;44.90;;;;;;1589511;73;1094;-56
2024/01/01 00:15:34;;;;;;;;;;;17.80;45.00;;;;;;1593152;73;1929;-56
2024/01/01 00:17:35;;;;;;;;;;;17.90;45.00;;;;;;1590362;73;785;-58
2024/01/01 00:19:37;;;;;;;;;;;17.80;44.90;;;;;;1591346;73;745;-59
2024/01/01 00:21:39;;;;;;;;;;;17.80;45.00;;;;;;1590139;73;740;-57
2024/01/01 00:23:41;;;;;;;;;;;17.80;45.00;;;;;;1590593;73;1132;-60
2024/01/01 00:25:43;;;;;;;;;;;17.90;45.10;;;;;;1594683;73;1537;-60
2024/01/01 00:27:45;;;;;;;;;;;17.90;45.10;;;;;;1595755;73;774;-60
2024/01/01 00:29:47;;;;;;;;;;;17.90;45.10;;;;;;1589952;73;854;-60
2024/01/01 00:31:48;;;;;;;;;;;17.80;44.90;;;;;;1590064;73;728;-60
2024/01/01 00:33:50;;;;;;;;;;;17.90;45.00;;;;;;1592433;73;1101;-61
2024/01/01 00:35:52;;;;;;;;;;;17.90;45.00;;;;;;1590748;73;1903;-61
2024/01/01 00:37:54;;;;;;;;;;;17.90;45.10;;;;;;1588925;73;1101;-60
2024/01/01 00:39:56;;;;;;;;;;;17.90;45.10;;;;;;1599019;73;1404;-60
2024/01/01 00:41:58;;;;;;;;;;;17.90;45.00;;;;;;1603626;73;725;-60
2024/01/01 00:44:00;;;;;;;;;;;17.90;45.10;;;;;;1596864;73;1192;-60
2024/01/01 00:46:02;;;;;;;;;;;17.80;44.90;;;;;;1605019;73;753;-61
2024/01/01 00:48:04;;;;;;;;;;;17.80;44.90;;;;;;1609583;73;790;-60
2024/01/01 00:50:06;;;;;;;;;;;17.80;44.90;;;;;;1602842;73;765;-60
2024/01/01 00:52:08;;;;;;;;;;;17.90;45.00;;;;;;1599232;73;697;-60
2024/01/01 00:54:13;;;;;;;;;;;17.80;44.90;;;;;;1598065;73;1613;-60
2024/01/01 00:56:15;;;;;;;;;;;17.90;45.00;;;;;;1598774;73;2110;-59
2024/01/01 00:58:17;;;;;;;;;;;17.80;45.00;;;;;;1599045;73;766;-60
2024/01/01 01:00:19;;;;;;;;;;;17.80;45.00;;;;;;1605238;73;693;-60
2024/01/01 01:02:21;;;;;;;;;;;17.80;44.90;;;;;;1599488;73;740;-60
2024/01/01 01:04:22;;;;;;;;;;;17.80;45.00;;;;;;1611158;73;1122;-61
2024/01/01 01:06:24;;;;;;;;;;;17.90;45.00;;;;;;1607940;73;771;-60
2024/01/01 01:08:26;;;;;;;;;;;17.90;45.00;;;;;;1598201;73;1320;-60
2024/01/01 01:10:28;;;;;;;;;;;17.90;45.00;;;;;;1604320;73;679;-60
2024/01/01 01:12:30;;;;;;;;;;;17.80;44.90;;;;;;1599130;73;734;-60
2024/01/01 01:14:32;;;;;;;;;;;17.80;44.90;;;;;;1600423;73;1069;-60
2024/01/01 01:16:34;;;;;;;;;;;17.90;45.10;;;;;;1610733;73;1938;-60
2024/01/01 01:18:36;;;;;;;;;;;17.90;45.00;;;;;;1598203;73;576;-61
2024/01/01 01:20:38;;;;;;;;;;;17.90;45.00;;;;;;1604642;73;799;-60
2024/01/01 01:22:40;;;;;;;;;;;17.80;44.90;;;;;;1596906;73;1577;-57
2024/01/01 01:24:41;;;;;;;;;;;17.80;44.90;;;;;;1605896;73;1102;-57
2024/01/01 01:26:43;;;;;;;;;;;17.90;45.00;;;;;;1597085;73;591;-60
2024/01/01 01:28:45;;;;;;;;;;;17.90;45.00;;;;;;1604972;73;743;-59
2024/01/01 01:30:47;;;;;;;;;;;17.80;44.80;;;;;;1601407;73;794;-58
2024/01/01 01:32:49;;;;;;;;;;;17.90;45.00;;;;;;1603953;73;1134;-60
2024/01/01 01:34:51;;;;;;;;;;;17.90;45.00;;;;;;1602994;73;643;-59
2024/01/01 01:36:53;;;;;;;;;;;17.80;44.80;;;;;;1599030;73;1906;-58
2024/01/01 01:38:55;;;;;;;;;;;17.90;45.00;;;;;;1599655;73;992;-58
2024/01/01 01:40:58;;;;;;;;;;;17.80;45.00;;;;;;1591368;73;775;-60
2024/01/01 01:43:00;;;;;;;;;;;17.80;44.90;;;;;;1591067;73;1201;-58
2024/01/01 01:45:02;;;;;;;;;;;17.80;44.90;;;;;;1587165;73;676;-59
2024/01/01 01:47:04;;;;;;;;;;;17.90;45.00;;;;;;1591700;73;759;-57
2024/01/01 01:49:06;;;;;;;;;;;17.90;45.00;;;;;;1600355;73;657;-57
2024/01/01 01:51:08;;;;;;;;;;;17.80;44.90;;;;;;1591015;73;1547;-54
2024/01/01 01:53:10;;;;;;;;;;;17.70;44.90;;;;;;1598905;73;1184;-59
2024/01/01 01:55:12;;;;;;;;;;;17.80;44.90;;;;;;1598007;73;1945;-58
2024/01/01 01:57:16;;;;;;;;;;;17.80;44.90;;;;;;1596301;73;810;-60
2024/01/01 01:59:18;;;;;;;;;;;17.80;44.90;;;;;;1597677;73;705;-59
2024/01/01 02:01:20;;;;;;;;;;;17.90;45.00;;;;;;1595249;73;686;-58
2024/01/01 02:03:22;;;;;;;;;;;17.90;45.00;;;;;;1589841;73;1139;-57
2024/01/01 02:05:24;;;;;;;;;;;17.90;45.00;;;;;;1592330;73;1271;-60
2024/01/01 02:07:26;;;;;;;;;;;17.80;44.90;;;;;;1594375;73;740;-60
2024/01/01 02:09:28;;;;;;;;;;;17.90;45.00;;;;;;1590984;73;672;-57
2024/01/01 02:11:30;;;;;;;;;;;17.90;45.00;;;;;;1590626;73;778;-60
2024/01/01 02:13:32;;;;;;;;;;;17.80;44.90;;;;;;1591055;73;1171;-60
2024/01/01 02:15:34;;;;;;;;;;;17.80;44.90;;;;;;1591680;73;1933;-60
2024/01/01 02:17:36;;;;;;;;;;;17.80;44.90;;;;;;1591480;73;697;-59
2024/01/01 02:19:38;;;;;;;;;;;17.90;45.00;;;;;;1596136;73;1393;-60
2024/01/01 02:21:40;;;;;;;;;;;17.80;44.90;;;;;;1599470;73;765;-59
2024/01/01 02:23:41;;;;;;;;;;;17.90;45.00;;;;;;1592795;73;1123;-60
2024/01/01 02:25:43;;;;;;;;;;;17.90;45.00;;;;;;1589449;73;673;-60
2024/01/01 02:27:45;;;;;;;;;;;17.90;45.00;;;;;;1598395;73;754;-60
2024/01/01 02:29:47;;;;;;;;;;;17.80;44.90;;;;;;1593086;73;729;-60
2024/01/01 02:31:49;;;;;;;;;;;17.80;44.90;;;;;;1588790;73;583;-61
2024/01/01 02:33:51;;;;;;;;;;;17.80;44.80;;;;;;1592881;73;1736;-60
2024/01/01 02:35:53;;;;;;;;;;;17.90;45.00;;;;;;1588905;73;1942;-60
2024/01/01 02:37:55;;;;;;;;;;;17.80;44.80;;;;;;1597325;73;886;-60
2024/01/01 02:39:56;;;;;;;;;;;17.80;44.80;;;;;;1600762;73;1111;-60
2024/01/01 02:41:58;;;;;;;;;;;17.80;44.80;;;;;;1590305;73;676;-59
2024/01/01 02:44:00;;;;;;;;;;;17.80;44.80;;;;;;1591045;73;1203;-60
2024/01/01 02:46:02;;;;;;;;;;;17.80;44.80;;;;;;1588893;73;1572;-59
2024/01/01 02:48:04;;;;;;;;;;;17.80;44.80;;;;;;1596925;73;680;-61
2024/01/01 02:50:07;;;;;;;;;;;17.80;44.80;;;;;;1593219;73;644;-60
2024/01/01 02:52:08;;;;;;;;;;;17.80;44.80;;;;;;1599091;73;727;-60
2024/01/01 02:54:11;;;;;;;;;;;17.80;44.80;;;;;;1591114;73;1178;-59
2024/01/01 02:56:17;;;;;;;;;;;17.80;44.80;;;;;;1591248;73;1919;-60
2024/01/01 02:58:19;;;;;;;;;;;17.80;44.70;;;;;;1597935;73;941;-60
2024/01/01 03:00:21;;;;;;;;;;;17.80;44.80;;;;;;1594292;73;1528;-60
2024/01/01 03:02:23;;;;;;;;;;;17.80;44.80;;;;;;1599765;73;676;-60
2024/01/01 03:04:28;;;;;;;;;;;17.80;44.80;;;;;;1589837;73;1066;-59
2024/01/01 03:06:28;;;;;;;;;;;17.80;44.80;;;;;;1591099;73;1809;-60
2024/01/01 03:08:30;;;;;;;;;;;17.80;44.80;;;;;;1595968;73;793;-59
2024/01/01 03:10:32;;;;;;;;;;;17.90;45.00;;;;;;1592463;73;768;-60
2024/01/01 03:12:34;;;;;;;;;;;17.80;44.80;;;;;;1596887;73;720;-59
2024/01/01 03:14:36;;;;;;;;;;;17.80;44.80;;;;;;1591178;73;1542;-60
2024/01/01 03:16:38;;;;;;;;;;;17.80;44.80;;;;;;1591239;73;1957;-59
2024/01/01 03:18:39;;;;;;;;;;;17.80;44.80;;;;;;1599038;73;797;-60
2024/01/01 03:20:41;;;;;;;;;;;17.90;44.90;;;;;;1592953;73;869;-60
2024/01/01 03:22:45;;;;;;;;;;;17.80;44.80;;;;;;1592449;73;1140;-60
2024/01/01 03:24:46;;;;;;;;;;;17.80;44.70;;;;;;1591791;73;878;-60
2024/01/01 03:26:48;;;;;;;;;;;17.80;44.80;;;;;;1591574;73;866;-60
2024/01/01 03:28:50;;;;;;;;;;;17.80;44.80;;;;;;1595723;73;1497;-59
2024/01/01 03:30:52;;;;;;;;;;;17.80;44.70;;;;;;1590104;73;751;-60
2024/01/01 03:32:54;;;;;;;;;;;17.80;44.70;;;;;;1594602;73;1151;-60
2024/01/01 03:34:56;;;;;;;;;;;17.80;44.80;;;;;;1590779;73;812;-60
2024/01/01 03:36:58;;;;;;;;;;;17.80;44.80;;;;;;1598906;73;1935;-60
2024/01/01 03:38:59;;;;;;;;;;;17.80;44.80;;;;;;1609328;73;713;-60
2024/01/01 03:41:01;;;;;;;;;;;17.80;44.70;;;;;;1598049;73;1059;-60
2024/01/01 03:43:03;;;;;;;;;;;17.80;44.80;;;;;;1601428;73;1613;-60
2024/01/01 03:45:05;;;;;;;;;;;17.80;44.80;;;;;;1602035;73;786;-60
2024/01/01 03:47:08;;;;;;;;;;;17.80;44.70;;;;;;1596588;73;801;-59
2024/01/01 03:49:09;;;;;;;;;;;17.80;44.80;;;;;;1602373;73;684;-61
2024/01/01 03:51:11;;;;;;;;;;;17.80;44.70;;;;;;1595547;73;680;-60
2024/01/01 03:53:13;;;;;;;;;;;17.80;44.70;;;;;;1600633;73;1161;-61
2024/01/01 03:55:18;;;;;;;;;;;17.80;44.70;;;;;;1596372;73;704;-60
2024/01/01 03:57:20;;;;;;;;;;;17.90;44.80;;;;;;1599356;73;1919;-59
2024/01/01 03:59:21;;;;;;;;;;;17.80;44.70;;;;;;1600746;73;736;-60
2024/01/01 04:01:25;;;;;;;;;;;17.80;44.70;;;;;;1603481;73;688;-60
2024/01/01 04:03:27;;;;;;;;;;;17.80;44.70;;;;;;1598269;73;1139;-60
2024/01/01 04:05:29;;;;;;;;;;;17.80;44.70;;;;;;1600515;73;720;-60
2024/01/01 04:07:30;;;;;;;;;;;17.80;44.70;;;;;;1602806;73;777;-59
2024/01/01 04:09:32;;;;;;;;;;;17.80;44.70;;;;;;1597481;73;796;-60
2024/01/01 04:11:34;;;;;;;;;;;17.80;44.70;;;;;;1596215;73;1537;-60
2024/01/01 04:13:36;;;;;;;;;;;17.80;44.70;;;;;;1600912;73;1139;-60
2024/01/01 04:15:38;;;;;;;;;;;17.80;44.70;;;;;;1605407;73;688;-60
2024/01/01 04:17:40;;;;;;;;;;;17.80;44.70;;;;;;1607759;73;1951;-60
2024/01/01 04:19:47;;;;;;;;;;;17.80;44.70;;;;;;1595430;73;834;-60
2024/01/01 04:21:45;;;;;;;;;;;17.70;44.70;;;;;;1601386;73;1477;-60
2024/01/01 04:23:48;;;;;;;;;;;17.90;44.90;;;;;;1612083;73;1089;-60
2024/01/01 04:25:49;;;;;;;;;;;17.80;44.70;;;;;;1596483;73;1529;-60
2024/01/01 04:27:51;;;;;;;;;;;17.80;44.70;;;;;;1604046;73;728;-59
2024/01/01 04:29:53;;;;;;;;;;;17.80;44.70;;;;;;1609701;73;673;-58
2024/01/01 04:31:55;;;;;;;;;;;17.80;44.70;;;;;;1596331;73;783;-58
2024/01/01 04:33:57;;;;;;;;;;;17.90;44.80;;;;;;1604760;73;1164;-59
2024/01/01 04:35:59;;;;;;;;;;;17.80;44.70;;;;;;1603397;73;738;-60
2024/01/01 04:38:01;;;;;;;;;;;17.80;44.70;;;;;;1595905;73;1931;-60
2024/01/01 04:40:04;;;;;;;;;;;17.80;44.70;;;;;;1605909;73;1606;-59
2024/01/01 04:42:06;;;;;;;;;;;17.80;44.70;;;;;;1599747;73;655;-60
2024/01/01 04:44:08;;;;;;;;;;;17.80;44.70;;;;;;1604340;73;1194;-60
2024/01/01 04:46:10;;;;;;;;;;;17.70;44.70;;;;;;1595167;73;798;-60
2024/01/01 04:48:12;;;;;;;;;;;17.80;44.70;;;;;;1605143;73;777;-60
2024/01/01 04:50:14;;;;;;;;;;;17.80;44.70;;;;;;1600683;73;748;-61
2024/01/01 04:52:16;;;;;;;;;;;17.90;44.80;;;;;;1601973;73;790;-60
2024/01/01 04:54:18;;;;;;;;;;;17.80;44.70;;;;;;1603895;73;1674;-60
2024/01/01 04:56:21;;;;;;;;;;;17.80;44.70;;;;;;1607723;73;1927;-60
2024/01/01 04:58:23;;;;;;;;;;;17.80;44.60;;;;;;1610732;73;789;-59
2024/01/01 05:00:25;;;;;;;;;;;17.80;44.70;;;;;;1601198;73;743;-60
2024/01/01 05:02:27;;;;;;;;;;;17.70;44.70;;;;;;1601429;73;805;-60
2024/01/01 05:04:29;;;;;;;;;;;17.80;44.70;;;;;;1606994;73;1102;-60
2024/01/01 05:06:31;;;;;;;;;;;17.80;44.70;;;;;;1599260;73;759;-60
2024/01/01 05:08:32;;;;;;;;;;;17.80;44.70;;;;;;1598026;73;1782;-60
2024/01/01 05:10:36;;;;;;;;;;;17.80;44.70;;;;;;1605105;73;795;-60
2024/01/01 05:12:38;;;;;;;;;;;17.80;44.80;;;;;;1598431;73;770;-59
2024/01/01 05:14:40;;;;;;;;;;;17.90;44.80;;;;;;1600148;73;1164;-60
2024/01/01 05:16:43;;;;;;;;;;;17.80;44.70;;;;;;1604772;73;1934;-59
2024/01/01 05:18:45;;;;;;;;;;;17.80;44.70;;;;;;1595599;73;728;-61
2024/01/01 05:20:47;;;;;;;;;;;17.80;44.70;;;;;;1604920;73;1313;-60
2024/01/01 05:22:49;;;;;;;;;;;17.70;44.70;;;;;;1611704;73;1136;-60
2024/01/01 05:24:50;;;;;;;;;;;17.70;44.70;;;;;;1601983;73;787;-59
2024/01/01 05:26:52;;;;;;;;;;;17.80;44.70;;;;;;1606412;73;713;-60
2024/01/01 05:28:54;;;;;;;;;;;17.80;44.70;;;;;;1616592;73;776;-60
2024/01/01 05:30:56;;;;;;;;;;;17.80;44.70;;;;;;1604977;73;689;-60
2024/01/01 05:32:58;;;;;;;;;;;17.80;44.70;;;;;;1605459;73;1135;-60
2024/01/01 05:35:00;;;;;;;;;;;17.70;44.60;;;;;;1596770;73;1579;-60
2024/01/01 05:37:02;;;;;;;;;;;17.80;44.70;;;;;;1595741;73;1930;-60
2024/01/01 05:39:04;;;;;;;;;;;17.80;44.60;;;;;;1595821;73;737;-59
2024/01/01 05:41:06;;;;;;;;;;;17.80;44.70;;;;;;1600401;73;979;-58
2024/01/01 05:43:07;;;;;;;;;;;17.80;44.70;;;;;;1589688;73;1171;-60
2024/01/01 05:45:09;;;;;;;;;;;17.80;44.70;;;;;;1594581;73;1051;-60
2024/01/01 05:47:11;;;;;;;;;;;17.90;44.80;;;;;;1590199;73;765;-61
2024/01/01 05:49:13;;;;;;;;;;;17.80;44.70;;;;;;1590602;73;1555;-60
2024/01/01 05:51:16;;;;;;;;;;;17.90;44.70;;;;;;1600466;73;727;-60
2024/01/01 05:53:18;;;;;;;;;;;17.80;44.60;;;;;;1595589;73;1192;-59
2024/01/01 05:55:20;;;;;;;;;;;17.80;44.70;;;;;;1588684;73;718;-60
2024/01/01 05:57:22;;;;;;;;;;;17.80;44.70;;;;;;1595680;73;1943;-60
2024/01/01 05:59:24;;;;;;;;;;;17.80;44.70;;;;;;1593717;73;765;-60
2024/01/01 06:01:26;;;;;;;;;;;17.80;44.70;;;;;;1593425;73;711;-60
2024/01/01 06:03:28;;;;;;;;;;;17.80;44.70;;;;;;1587971;73;1597;-60
2024/01/01 06:05:33;;;;;;;;;;;17.80;44.70;;;;;;1599023;73;697;-60
2024/01/01 06:07:35;;;;;;;;;;;17.80;44.60;;;;;;1599951;73;718;-60
2024/01/01 06:09:37;;;;;;;;;;;17.80;44.70;;;;;;1590187;73;733;-59
2024/01/01 06:11:39;;;;;;;;;;;17.90;44.80;;;;;;1588707;73;732;-59
2024/01/01 06:13:41;;;;;;;;;;;17.80;44.70;;;;;;1602435;73;1083;-60
2024/01/01 06:15:43;;;;;;;;;;;17.80;44.60;;;;;;1589674;73;726;-60
2024/01/01 06:17:44;;;;;;;;;;;17.80;44.60;;;;;;1595826;73;1937;-61
2024/01/01 06:19:48;;;;;;;;;;;17.80;44.60;;;;;;1594122;73;750;-60
2024/01/01 06:21:50;;;;;;;;;;;17.80;44.60;;;;;;1592617;73;732;-61
2024/01/01 06:23:52;;;;;;;;;;;17.80;44.70;;;;;;1590595;73;1150;-60
2024/01/01 06:25:54;;;;;;;;;;;17.80;44.60;;;;;;1596463;73;758;-60
2024/01/01 06:27:56;;;;;;;;;;;17.80;44.70;;;;;;1594526;73;727;-61
2024/01/01 06:29:58;;;;;;;;;;;17.80;44.60;;;;;;1596563;73;767;-59
2024/01/01 06:32:00;;;;;;;;;;;17.70;44.60;;;;;;1593216;73;1499;-57
2024/01/01 06:34:02;;;;;;;;;;;17.80;44.60;;;;;;1599001;73;1138;-58
2024/01/01 06:36:04;;;;;;;;;;;17.80;44.60;;;;;;1592249;73;763;-59
2024/01/01 06:38:06;;;;;;;;;;;17.80;44.60;;;;;;1596942;73;1911;-58
2024/01/01 06:40:08;;;;;;;;;;;17.80;44.60;;;;;;1587810;73;753;-60
2024/01/01 06:42:10;;;;;;;;;;;17.80;44.60;;;;;;1597426;73;1167;-57
2024/01/01 06:44:12;;;;;;;;;;;17.80;44.60;;;;;;1597053;73;1140;-60
2024/01/01 06:46:14;;;;;;;;;;;17.80;44.60;;;;;;1596571;73;1588;-60
2024/01/01 06:48:16;;;;;;;;;;;17.80;44.60;;;;;;1603229;73;692;-60
2024/01/01 06:50:18;;;;;;;;;;;17.80;44.50;;;;;;1598885;73;705;-60
2024/01/01 06:52:19;;;;;;;;;;;17.80;44.50;;;;;;1599228;73;751;-60
2024/01/01 06:54:21;;;;;;;;;;;17.80;44.60;;;;;;1599081;73;1162;-60
2024/01/01 06:56:23;;;;;;;;;;;17.80;44.60;;;;;;1603111;73;674;-59
2024/01/01 06:58:25;;;;;;;;;;;18.00;44.70;;;;;;1608000;73;1937;-59
2024/01/01 07:00:27;;;;;;;;;;;17.80;44.60;;;;;;1606718;73;1553;-60
2024/01/01 07:02:29;;;;;;;;;;;17.80;44.60;;;;;;1597019;73;775;-60
2024/01/01 07:04:31;;;;;;;;;;;17.80;44.60;;;;;;1598609;73;1099;-60
2024/01/01 07:06:34;;;;;;;;;;;17.80;44.60;;;;;;1601555;73;712;-60
2024/01/01 07:08:35;;;;;;;;;;;17.80;44.60;;;;;;1601420;73;747;-60
2024/01/01 07:10:37;;;;;;;;;;;17.80;44.50;;;;;;1600436;73;712;-59
2024/01/01 07:12:39;;;;;;;;;;;17.80;44.50;;;;;;1604977;73;673;-58
2024/01/01 07:14:41;;;;;;;;;;;17.80;44.50;;;;;;1602285;73;1329;-58
2024/01/01 07:16:43;;;;;;;;;;;17.80;44.50;;;;;;1596727;73;761;-58
2024/01/01 07:18:45;;;;;;;;;;;17.70;44.50;;;;;;1599806;73;1933;-60
2024/01/01 07:20:47;;;;;;;;;;;17.80;44.50;;;;;;1605952;73;742;-60
2024/01/01 07:22:49;;;;;;;;;;;17.80;44.50;;;;;;1598377;73;1140;-59
2024/01/01 07:24:51;;;;;;;;;;;17.80;44.50;;;;;;1595821;73;770;-60
2024/01/01 07:26:53;;;;;;;;;;;17.80;44.50;;;;;;1599116;73;769;-60
2024/01/01 07:28:54;;;;;;;;;;;17.80;44.50;;;;;;1601158;73;1574;-60
2024/01/01 07:30:58;;;;;;;;;;;17.80;44.60;;;;;;1599861;73;821;-60
2024/01/01 07:33:00;;;;;;;;;;;17.80;44.50;;;;;;1608749;73;1135;-60
2024/01/01 07:35:02;;;;;;;;;;;17.80;44.60;;;;;;1596816;73;807;-60
2024/01/01 07:37:04;;;;;;;;;;;17.80;44.50;;;;;;1600043;73;744;-60
2024/01/01 07:39:06;;;;;;;;;;;17.80;44.50;;;;;;1597322;73;1915;-60
2024/01/01 07:41:08;;;;;;;;;;;17.80;44.40;;;;;;1603654;73;686;-60
2024/01/01 07:43:10;;;;;;;;;;;17.80;44.50;;;;;;1596836;73;1934;-60
2024/01/01 07:45:12;;;;;;;;;;;17.80;44.50;;;;;;1604421;73;748;-60
2024/01/01 07:47:15;;;;;;;;;;;17.80;44.50;;;;;;1597839;73;806;-60
2024/01/01 07:49:17;;;;;;;;;;;17.80;44.50;;;;;;1606011;73;759;-59
2024/01/01 07:51:19;;;;;;;;;;;17.80;44.50;;;;;;1601622;73;732;-60
2024/01/01 07:53:21;;;;;;;;;;;17.80;44.50;;;;;;1598529;73;1183;-60
2024/01/01 07:55:23;;;;;;;;;;;17.80;44.40;;;;;;1595448;73;1546;-60
2024/01/01 07:57:25;;;;;;;;;;;17.70;44.50;;;;;;1597848;73;1935;-60
2024/01/01 07:59:27;;;;;;;;;;;17.80;44.50;;;;;;1604071;73;814;-60
2024/01/01 08:01:29;;;;;;;;;;;17.80;44.50;;;;;;1603279;73;786;-60
2024/01/01 08:03:30;;;;;;;;;;;17.80;44.40;;;;;;1606777;73;1103;-60
2024/01/01 08:05:33;;;;;;;;;;;17.80;44.50;;;;;;1597768;73;780;-59
2024/01/01 08:07:35;;;;;;;;;;;17.80;44.50;;;;;;1608223;73;694;-60
2024/01/01 08:09:37;;;;;;;;;;;17.80;44.50;;;;;;1597614;73;1481;-60
2024/01/01 08:11:39;;;;;;;;;;;17.80;44.50;;;;;;1605336;73;720;-60
2024/01/01 08:13:41;;;;;;;;;;;17.80;44.50;;;;;;1604546;73;1115;-60
2024/01/01 08:15:43;;;;;;;;;;;17.80;44.50;;;;;;1598364;73;741;-60
2024/01/01 08:17:45;;;;;;;;;;;17.80;44.50;;;;;;1596815;73;1941;-60
2024/01/01 08:19:47;;;;;;;;;;;17.80;44.50;;;;;;1604313;73;789;-60
2024/01/01 08:21:48;;;;;;;;;;;17.80;44.40;;;;;;1596059;73;771;-59
2024/01/01 08:23:50;;;;;;;;;;;17.80;44.40;;;;;;1601475;73;1571;-60
2024/01/01 08:25:52;;;;;;;;;;;17.80;44.50;;;;;;1604962;73;766;-60
2024/01/01 08:27:54;;;;;;;;;;;17.80;44.40;;;;;;1603504;73;715;-61
2024/01/01 08:29:56;;;;;;;;;;;17.80;44.50;;;;;;1612182;73;708;-60
2024/01/01 08:31:58;;;;;;;;;;;17.80;44.40;;;;;;1602394;73;723;-60
2024/01/01 08:34:00;;;;;;;;;;;17.80;44.50;;;;;;1615192;73;1084;-60
2024/01/01 08:36:02;;;;;;;;;;;17.80;44.40;;;;;;1603359;73;785;-60
2024/01/01 08:38:04;;;;;;;;;;;17.80;44.50;;;;;;1604668;73;1927;-60
2024/01/01 08:40:07;;;;;;;;;;;17.80;44.50;;;;;;1603413;73;741;-62
2024/01/01 08:42:10;;;;;;;;;;;17.80;44.50;;;;;;1599928;73;600;-61
2024/01/01 08:44:12;;;;;;;;;;;17.80;44.40;;;;;;1593378;73;1188;-60
2024/01/01 08:46:14;;;;;;;;;;;17.80;44.50;;;;;;1587100;73;762;-59
2024/01/01 08:48:16;;;;;;;;;;;17.80;44.40;;;;;;1603702;73;691;-61
2024/01/01 08:50:18;;;;;;;;;;;17.80;44.50;;;;;;1604957;73;663;-61
2024/01/01 08:52:20;;;;;;;;;;;17.80;44.40;;;;;;1600548;73;1559;-60
2024/01/01 08:54:22;;;;;;;;;;;17.80;44.50;;;;;;1596600;73;1168;-60
2024/01/01 08:56:24;;;;;;;;;;;17.80;44.50;;;;;;1593884;73;713;-59
2024/01/01 08:58:26;;;;;;;;;;;17.80;44.50;;;;;;1593880;73;1933;-60
2024/01/01 09:00:28;;;;;;;;;;;17.80;44.40;;;;;;1593847;73;713;-60
2024/01/01 09:02:30;;;;;;;;;;;17.80;44.40;;;;;;1593718;73;794;-59
2024/01/01 09:04:32;;;;;;;;;;;17.80;44.40;;;;;;1595130;73;1127;-60
2024/01/01 09:06:34;;;;;;;;;;;17.80;44.40;;;;;;1596076;73;1429;-62
2024/01/01 09:08:36;;;;;;;;;;;17.80;44.50;;;;;;1599513;73;720;-60
2024/01/01 09:10:38;;;;;;;;;;;17.80;44.50;;;;;;1602272;73;720;-60
2024/01/01 09:12:39;;;;;;;;;;;17.80;44.50;;;;;;1594459;73;760;-60
2024/01/01 09:14:41;;;;;;;;;;;17.80;44.50;;;;;;1596068;73;1159;-61
2024/01/01 09:16:43;;;;;;;;;;;17.80;44.40;;;;;;1596820;73;707;-60
2024/01/01 09:18:45;;;;;;;;;;;17.80;44.40;;;;;;1593269;73;1939;-61
2024/01/01 09:20:47;;;;;;;;;;;17.80;44.50;;;;;;1591298;73;1519;-59
2024/01/01 09:22:51;;;;;;;;;;;17.80;44.40;;;;;;1592371;73;1163;-60
2024/01/01 09:24:53;;;;;;;;;;;17.80;44.40;;;;;;1594197;73;771;-60
2024/01/01 09:26:54;;;;;;;;;;;17.80;44.40;;;;;;1595150;73;743;-59
2024/01/01 09:28:56;;;;;;;;;;;17.80;44.40;;;;;;1602195;73;696;-60
2024/01/01 09:30:58;;;;;;;;;;;17.80;44.40;;;;;;1594565;73;766;-60
2024/01/01 09:33:00;;;;;;;;;;;17.90;44.60;;;;;;1591858;73;1146;-60
2024/01/01 09:35:02;;;;;;;;;;;17.80;44.40;;;;;;1598906;73;1538;-60
2024/01/01 09:37:04;;;;;;;;;;;17.70;44.40;;;;;;1594602;73;713;-60
2024/01/01 09:39:06;;;;;;;;;;;17.80;44.40;;;;;;1599251;73;1931;-60
2024/01/01 09:41:14;;;;;;;;;;;17.70;44.40;;;;;;1600087;73;755;-59
2024/01/01 09:43:16;;;;;;;;;;;17.80;44.40;;;;;;1588426;73;1124;-59
2024/01/01 09:45:19;;;;;;;;;;;17.70;44.40;;;;;;1600011;73;738;-60
2024/01/01 09:47:20;;;;;;;;;;;17.80;44.40;;;;;;1587757;73;680;-60
2024/01/01 09:49:24;;;;;;;;;;;17.80;44.40;;;;;;1599130;73;1382;-59
2024/01/01 09:51:26;;;;;;;;;;;17.80;44.40;;;;;;1591680;73;789;-59
2024/01/01 09:53:28;;;;;;;;;;;17.80;44.40;;;;;;1592989;73;1188;-59
2024/01/01 09:55:30;;;;;;;;;;;17.80;44.40;;;;;;1587545;73;792;-60
2024/01/01 09:57:32;;;;;;;;;;;17.80;44.40;;;;;;1594292;73;805;-60
2024/01/01 09:59:36;;;;;;;;;;;17.80;44.40;;;;;;1589558;73;1921;-60
2024/01/01 10:01:38;;;;;;;;;;;17.70;44.40;;;;;;1594913;73;714;-59
2024/01/01 10:03:40;;;;;;;;;;;17.80;44.40;;;;;;1598140;73;1565;-59
2024/01/01 10:05:44;;;;;;;;;;;17.80;44.40;;;;;;1595567;73;716;-60
2024/01/01 10:07:47;;;;;;;;;;;17.80;44.40;;;;;;1598911;73;703;-59
2024/01/01 10:09:49;;;;;;;;;;;17.80;44.30;;;;;;1602611;73;774;-58
2024/01/01 10:11:51;;;;;;;;;;;17.80;44.30;;;;;;1587904;73;920;-59
2024/01/01 10:13:53;;;;;;;;;;;17.80;44.30;;;;;;1592290;73;1131;-60
2024/01/01 10:15:56;;;;;;;;;;;17.80;44.40;;;;;;1598321;73;749;-60
2024/01/01 10:17:59;;;;;;;;;;;17.80;44.30;;;;;;1597896;73;741;-60
2024/01/01 10:20:01;;;;;;;;;;;17.80;44.30;;;;;;1587792;73;1933;-59
2024/01/01 10:22:05;;;;;;;;;;;17.80;44.30;;;;;;1599957;73;780;-59
2024/01/01 10:24:15;;;;;;;;;;;17.80;44.30;;;;;;1598629;73;1907;-60
2024/01/01 10:26:17;;;;;;;;;;;17.80;44.40;;;;;;1594647;73;1134;-59
2024/01/01 10:28:24;;;;;;;;;;;17.80;44.30;;;;;;1597339;73;751;-59
2024/01/01 10:30:22;;;;;;;;;;;17.80;44.40;;;;;;1598650;73;1531;-60
2024/01/01 10:32:24;;;;;;;;;;;17.90;44.40;;;;;;1594682;73;779;-60
2024/01/01 10:34:26;;;;;;;;;;;17.80;44.30;;;;;;1595121;73;1123;-59
2024/01/01 10:36:28;;;;;;;;;;;17.80;44.30;;;;;;1587924;73;783;-60
2024/01/01 10:38:31;;;;;;;;;;;17.80;44.30;;;;;;1566914;74;1943;-58
2024/01/01 10:40:33;;;;;;;;;;;17.80;44.20;;;;;;1595892;73;702;-60
2024/01/01 10:42:35;;;;;;;;;;;17.80;44.20;;;;;;1590293;73;818;-60
2024/01/01 10:44:36;;;;;;;;;;;17.80;44.30;;;;;;1590301;73;1504;-59
2024/01/01 10:46:48;;;;;;;;;;;17.80;44.30;;;;;;1587942;73;729;-60
2024/01/01 10:48:50;;;;;;;;;;;17.80;44.30;;;;;;1592771;73;759;-60
2024/01/01 10:50:53;;;;;;;;;;;17.80;44.30;;;;;;1595609;73;948;-60
2024/01/01 10:53:15;;;;;;;;;;;17.80;44.30;;;;;;1598245;73;1888;-61
2024/01/01 10:55:18;;;;;;;;;;;17.70;44.30;;;;;;1595648;73;782;-60
2024/01/01 10:57:25;;;;;;;;;;;17.80;44.30;;;;;;1596803;73;783;-60
2024/01/01 10:59:30;;;;;;;;;;;17.80;44.30;;;;;;1596231;73;1920;-61
2024/01/01 11:01:32;;;;;;;;;;;17.80;44.30;;;;;;1588513;73;721;-60
2024/01/01 11:03:34;;;;;;;;;;;17.80;44.30;;;;;;1590690;73;1122;-60
2024/01/01 11:05:36;;;;;;;;;;;17.80;44.30;;;;;;1597330;73;791;-60
2024/01/01 11:07:54;;;;;;;;;;;17.80;44.30;;;;;;1594372;73;736;-60
2024/01/01 11:09:56;;;;;;;;;;;17.80;44.30;;;;;;1587967;73;791;-59
2024/01/01 11:12:00;;;;;;;;;;;17.80;44.30;;;;;;1597240;73;807;-59
2024/01/01 11:14:02;;;;;;;;;;;17.80;44.30;;;;;;1598107;73;1570;-59
2024/01/01 11:16:04;;;;;;;;;;;17.80;44.20;;;;;;1587784;73;894;-59
2024/01/01 11:18:13;;;;;;;;;;;17.80;44.30;;;;;;1586532;73;749;-59
2024/01/01 11:20:17;;;;;;;;;;;17.80;44.30;;;;;;1596353;73;1922;-59
2024/01/01 11:22:20;;;;;;;;;;;17.80;44.30;;;;;;1586937;73;1287;-60
2024/01/01 11:24:40;;;;;;;;;;;17.80;44.30;;;;;;1596403;73;1161;-59
2024/01/01 11:26:43;;;;;;;;;;;17.80;44.30;;;;;;1590610;73;1344;-59
2024/01/01 11:28:45;;;;;;;;;;;17.80;44.30;;;;;;1601838;73;749;-60
2024/01/01 11:30:47;;;;;;;;;;;17.80;44.30;;;;;;1592123;73;728;-61
2024/01/01 11:32:49;;;;;;;;;;;17.80;44.30;;;;;;1593992;73;1139;-60
2024/01/01 11:35:05;;;;;;;;;;;17.80;44.30;;;;;;1592205;73;660;-59
2024/01/01 11:37:06;;;;;;;;;;;17.80;44.20;;;;;;1589173;73;725;-62
2024/01/01 11:39:08;;;;;;;;;;;17.80;44.30;;;;;;1595405;73;1944;-60
2024/01/01 11:41:10;;;;;;;;;;;17.80;44.20;;;;;;1594235;73;1536;-59
2024/01/01 11:43:12;;;;;;;;;;;17.80;44.20;;;;;;1588294;73;1128;-60
2024/01/01 11:45:17;;;;;;;;;;;17.80;44.20;;;;;;1596521;73;1119;-59
2024/01/01 11:47:19;;;;;;;;;;;17.80;44.30;;;;;;1595129;73;683;-60
2024/01/01 11:49:21;;;;;;;;;;;17.80;44.30;;;;;;1594927;73;725;-59
2024/01/01 11:51:23;;;;;;;;;;;17.80;44.30;;;;;;1601825;73;697;-60
2024/01/01 11:53:25;;;;;;;;;;;17.80;44.30;;;;;;1588380;73;1195;-59
2024/01/01 11:55:27;;;;;;;;;;;17.80;44.20;;;;;;1593060;73;1582;-59
2024/01/01 11:57:29;;;;;;;;;;;17.80;44.30;;;;;;1592249;73;720;-60
2024/01/01 11:59:31;;;;;;;;;;;17.80;44.30;;;;;;1589908;73;1929;-60
2024/01/01 12:01:34;;;;;;;;;;;17.70;44.30;;;;;;1594290;73;648;-60
2024/01/01 12:03:36;;;;;;;;;;;17.80;44.20;;;;;;1588878;73;1175;-59
2024/01/01 12:05:38;;;;;;;;;;;17.80;44.30;;;;;;1595979;73;579;-60
2024/01/01 12:07:40;;;;;;;;;;;17.80;44.30;;;;;;1600272;73;788;-60
2024/01/01 12:09:43;;;;;;;;;;;17.80;44.30;;;;;;1594086;73;1270;-59